Denver, CO

4:06 PM MST on February 27, 2015 (GMT -0700)
Geography and Env. Sciences, CU Denver | Change Station
CLOSE
Current Station
Personal Weather Station
Location: Denver, CO
Elevation: 5225 ft
Nearby Weather Stations

Elev 5225 ft 39.75 °N, 105.00 °W | Updated 1 minute ago

Partly Cloudy
Partly Cloudy
19.7 °F
Feels Like 14 °F
N
4.0
Wind Variable Wind from NNW
Gusts 5.0 mph

Today
High -- | Low -- °F
--% Chance of Precip.
Yesterday
High -- | Low -- °F
Precip. -- in
6:36 AM 5:49 PM
Waxing Gibbous, 72% visible
Pressure 30.11 in
Visibility 10.0 miles
Clouds Few 5000 ft
Few 11000 ft
Few 22000 ft
Windchill 14 °F
Dew Point 13 °F
Humidity 75%
Rainfall 0.00 in
Snow Depth Not available.
UV 1.0 out of 12
Pollen .60 out of 12
Air Quality Not available.
Flu Activity Not available.
METAR KAPA 272253Z 00000KT 10SM FEW050 FEW110 FEW220 M08/M14 A2985 RMK AO2 SLP196 T10831144

More Conditions Fewer Conditions

Pressure 30.11 in
Visibility 10.0 miles
Clouds Few 5000 ft
Few 11000 ft
Few 22000 ft
Windchill 14 °F
Dew Point 13 °F
Humidity 75%
Rainfall 0.00 in
Snow Depth Not available.
UV 1.0 out of 12
Pollen .60 out of 12
Air Quality Not available.
Flu Activity Not available.
METAR KAPA 272253Z 00000KT 10SM FEW050 FEW110 FEW220 M08/M14 A2985 RMK AO2 SLP196 T10831144

More Conditions Fewer Conditions

10-Day Weather Forecast

Almanac

Astronomy

Feb. 27, 2015 Rise Set
Actual Time
Civil Twilight
Nautical Twilight
Astronomical Twilight
Moon
Length of Visible Light
Length of Day
Tomorrow will be .
, % of the Moon is Illuminated

Today's Extremes

State Highs State Lows

Community

WunderPhotos

Upload Photos

1,800,873 photos uploaded!

WunderBlogs® & News

Nearby

Air Quality

  Air Quality AQ Index Pollutant
Not available.

Snow Depth

Station Depth Elevation

Earthquake Activity

City Distance Mag. Time & Date
Minimum magnitude displayed is 2.5.

Coastal Water Temperatures

Place Temperature

Nearby Weather Stations